sensor_id;sensor_type;location;lat;lon;timestamp;P1;durP1;ratioP1;P2;durP2;ratioP2
4895;SDS011;2463;49.948;8.472;2023-02-13T00:01:55;101.68;;;9.13;;
4895;SDS011;2463;49.948;8.472;2023-02-13T00:04:21;98.35;;;8.70;;
4895;SDS011;2463;49.948;8.472;2023-02-13T00:06:48;98.75;;;9.02;;
4895;SDS011;2463;49.948;8.472;2023-02-13T00:09:15;96.65;;;8.68;;
4895;SDS011;2463;49.948;8.472;2023-02-13T00:11:41;98.93;;;8.82;;
4895;SDS011;2463;49.948;8.472;2023-02-13T00:14:08;98.47;;;8.70;;
4895;SDS011;2463;49.948;8.472;2023-02-13T00:16:35;98.55;;;8.70;;
4895;SDS011;2463;49.948;8.472;2023-02-13T00:19:02;101.45;;;8.60;;
4895;SDS011;2463;49.948;8.472;2023-02-13T00:21:29;101.28;;;9.38;;
4895;SDS011;2463;49.948;8.472;2023-02-13T00:23:57;99.07;;;8.63;;
4895;SDS011;2463;49.948;8.472;2023-02-13T00:26:23;97.55;;;8.63;;
4895;SDS011;2463;49.948;8.472;2023-02-13T00:28:50;101.57;;;9.35;;
4895;SDS011;2463;49.948;8.472;2023-02-13T00:31:18;101.40;;;10.52;;
4895;SDS011;2463;49.948;8.472;2023-02-13T00:33:46;96.28;;;8.20;;
4895;SDS011;2463;49.948;8.472;2023-02-13T00:36:14;99.32;;;9.30;;
4895;SDS011;2463;49.948;8.472;2023-02-13T00:38:43;100.03;;;8.60;;
4895;SDS011;2463;49.948;8.472;2023-02-13T00:41:10;96.25;;;8.05;;
4895;SDS011;2463;49.948;8.472;2023-02-13T00:43:37;100.13;;;8.45;;
4895;SDS011;2463;49.948;8.472;2023-02-13T00:46:04;102.93;;;8.93;;
4895;SDS011;2463;49.948;8.472;2023-02-13T00:48:32;98.88;;;8.43;;
4895;SDS011;2463;49.948;8.472;2023-02-13T00:51:00;98.90;;;9.40;;
4895;SDS011;2463;49.948;8.472;2023-02-13T00:53:27;100.50;;;9.70;;
4895;SDS011;2463;49.948;8.472;2023-02-13T00:55:54;98.20;;;8.60;;
4895;SDS011;2463;49.948;8.472;2023-02-13T00:58:21;100.43;;;9.23;;
4895;SDS011;2463;49.948;8.472;2023-02-13T01:00:48;103.90;;;9.68;;
4895;SDS011;2463;49.948;8.472;2023-02-13T01:03:17;98.10;;;8.40;;
4895;SDS011;2463;49.948;8.472;2023-02-13T01:05:45;101.75;;;9.68;;
4895;SDS011;2463;49.948;8.472;2023-02-13T01:08:12;102.80;;;9.75;;
4895;SDS011;2463;49.948;8.472;2023-02-13T01:10:40;101.47;;;9.85;;
4895;SDS011;2463;49.948;8.472;2023-02-13T01:13:08;105.60;;;9.93;;
4895;SDS011;2463;49.948;8.472;2023-02-13T01:15:35;100.15;;;9.88;;
4895;SDS011;2463;49.948;8.472;2023-02-13T01:18:02;101.32;;;10.02;;
4895;SDS011;2463;49.948;8.472;2023-02-13T01:20:29;102.75;;;11.20;;
4895;SDS011;2463;49.948;8.472;2023-02-13T01:22:56;105.60;;;11.02;;
4895;SDS011;2463;49.948;8.472;2023-02-13T01:25:23;104.40;;;10.80;;
4895;SDS011;2463;49.948;8.472;2023-02-13T01:27:50;103.22;;;10.50;;
4895;SDS011;2463;49.948;8.472;2023-02-13T01:30:17;106.85;;;10.50;;
4895;SDS011;2463;49.948;8.472;2023-02-13T01:32:44;108.43;;;9.90;;
4895;SDS011;2463;49.948;8.472;2023-02-13T01:35:12;101.72;;;10.20;;
4895;SDS011;2463;49.948;8.472;2023-02-13T01:37:40;105.10;;;11.65;;
4895;SDS011;2463;49.948;8.472;2023-02-13T01:40:08;108.53;;;10.75;;
4895;SDS011;2463;49.948;8.472;2023-02-13T01:42:37;104.32;;;11.02;;
4895;SDS011;2463;49.948;8.472;2023-02-13T01:45:26;102.07;;;10.27;;
4895;SDS011;2463;49.948;8.472;2023-02-13T01:50:23;102.22;;;10.65;;
4895;SDS011;2463;49.948;8.472;2023-02-13T01:53:01;104.75;;;10.63;;
4895;SDS011;2463;49.948;8.472;2023-02-13T01:55:30;100.35;;;10.73;;
4895;SDS011;2463;49.948;8.472;2023-02-13T01:58:04;105.15;;;10.50;;
4895;SDS011;2463;49.948;8.472;2023-02-13T02:00:34;104.68;;;10.35;;
4895;SDS011;2463;49.948;8.472;2023-02-13T02:03:13;110.22;;;11.93;;
4895;SDS011;2463;49.948;8.472;2023-02-13T02:05:50;103.47;;;10.70;;
4895;SDS011;2463;49.948;8.472;2023-02-13T02:08:19;103.43;;;11.23;;
4895;SDS011;2463;49.948;8.472;2023-02-13T02:10:46;99.97;;;9.35;;
4895;SDS011;2463;49.948;8.472;2023-02-13T02:13:14;106.45;;;11.93;;
4895;SDS011;2463;49.948;8.472;2023-02-13T02:15:44;99.95;;;9.65;;
4895;SDS011;2463;49.948;8.472;2023-02-13T02:18:19;103.70;;;11.40;;
4895;SDS011;2463;49.948;8.472;2023-02-13T02:29:19;101.07;;;10.80;;
4895;SDS011;2463;49.948;8.472;2023-02-13T02:48:24;104.43;;;10.60;;
4895;SDS011;2463;49.948;8.472;2023-02-13T02:54:36;108.18;;;10.23;;
4895;SDS011;2463;49.948;8.472;2023-02-13T02:57:32;102.57;;;10.35;;
4895;SDS011;2463;49.948;8.472;2023-02-13T03:00:36;99.50;;;9.35;;
4895;SDS011;2463;49.948;8.472;2023-02-13T03:03:25;106.45;;;11.07;;
4895;SDS011;2463;49.948;8.472;2023-02-13T03:06:17;101.68;;;10.50;;
4895;SDS011;2463;49.948;8.472;2023-02-13T03:08:57;103.07;;;11.05;;
4895;SDS011;2463;49.948;8.472;2023-02-13T03:11:48;108.03;;;11.85;;
4895;SDS011;2463;49.948;8.472;2023-02-13T03:14:35;104.60;;;11.48;;
4895;SDS011;2463;49.948;8.472;2023-02-13T03:17:02;105.50;;;10.60;;
4895;SDS011;2463;49.948;8.472;2023-02-13T03:20:10;105.00;;;10.60;;
4895;SDS011;2463;49.948;8.472;2023-02-13T03:28:45;103.57;;;10.13;;
4895;SDS011;2463;49.948;8.472;2023-02-13T03:32:05;106.45;;;11.57;;
4895;SDS011;2463;49.948;8.472;2023-02-13T03:34:55;112.03;;;11.05;;
4895;SDS011;2463;49.948;8.472;2023-02-13T03:37:48;103.55;;;10.00;;
4895;SDS011;2463;49.948;8.472;2023-02-13T03:42:54;109.15;;;12.35;;
4895;SDS011;2463;49.948;8.472;2023-02-13T03:45:37;108.63;;;11.25;;
4895;SDS011;2463;49.948;8.472;2023-02-13T03:48:28;108.88;;;12.95;;
4895;SDS011;2463;49.948;8.472;2023-02-13T03:51:21;105.95;;;10.45;;
4895;SDS011;2463;49.948;8.472;2023-02-13T03:53:56;104.90;;;10.50;;
4895;SDS011;2463;49.948;8.472;2023-02-13T03:56:27;108.80;;;11.45;;
4895;SDS011;2463;49.948;8.472;2023-02-13T03:59:17;102.15;;;10.85;;
4895;SDS011;2463;49.948;8.472;2023-02-13T04:01:59;107.55;;;11.98;;
4895;SDS011;2463;49.948;8.472;2023-02-13T04:04:44;108.90;;;11.23;;
4895;SDS011;2463;49.948;8.472;2023-02-13T04:07:12;107.03;;;11.65;;
4895;SDS011;2463;49.948;8.472;2023-02-13T04:09:59;107.78;;;11.23;;
4895;SDS011;2463;49.948;8.472;2023-02-13T04:12:50;108.22;;;10.60;;
4895;SDS011;2463;49.948;8.472;2023-02-13T04:15:35;108.53;;;12.80;;
4895;SDS011;2463;49.948;8.472;2023-02-13T04:18:08;105.90;;;11.32;;
4895;SDS011;2463;49.948;8.472;2023-02-13T04:20:42;102.75;;;11.15;;
4895;SDS011;2463;49.948;8.472;2023-02-13T04:23:09;108.10;;;12.50;;
4895;SDS011;2463;49.948;8.472;2023-02-13T04:25:38;108.53;;;11.85;;
4895;SDS011;2463;49.948;8.472;2023-02-13T04:28:09;108.63;;;12.50;;
4895;SDS011;2463;49.948;8.472;2023-02-13T04:30:35;106.53;;;11.40;;
4895;SDS011;2463;49.948;8.472;2023-02-13T04:33:03;104.18;;;11.50;;
4895;SDS011;2463;49.948;8.472;2023-02-13T04:35:29;107.30;;;12.25;;
4895;SDS011;2463;49.948;8.472;2023-02-13T04:37:56;112.82;;;12.55;;
4895;SDS011;2463;49.948;8.472;2023-02-13T04:40:23;105.45;;;11.70;;
4895;SDS011;2463;49.948;8.472;2023-02-13T04:42:49;109.50;;;11.90;;
4895;SDS011;2463;49.948;8.472;2023-02-13T04:45:16;112.32;;;11.48;;
4895;SDS011;2463;49.948;8.472;2023-02-13T04:47:48;107.80;;;12.18;;
4895;SDS011;2463;49.948;8.472;2023-02-13T04:50:16;109.28;;;12.00;;
4895;SDS011;2463;49.948;8.472;2023-02-13T04:52:43;108.72;;;12.57;;
4895;SDS011;2463;49.948;8.472;2023-02-13T04:55:10;110.32;;;12.95;;
4895;SDS011;2463;49.948;8.472;2023-02-13T04:57:37;105.88;;;11.55;;
4895;SDS011;2463;49.948;8.472;2023-02-13T05:00:05;108.38;;;12.80;;
4895;SDS011;2463;49.948;8.472;2023-02-13T05:02:32;108.38;;;11.65;;
4895;SDS011;2463;49.948;8.472;2023-02-13T05:04:59;108.63;;;11.82;;
4895;SDS011;2463;49.948;8.472;2023-02-13T05:07:26;109.68;;;12.25;;
4895;SDS011;2463;49.948;8.472;2023-02-13T05:09:52;112.22;;;13.07;;
4895;SDS011;2463;49.948;8.472;2023-02-13T05:12:19;109.72;;;12.63;;
4895;SDS011;2463;49.948;8.472;2023-02-13T05:14:46;105.63;;;12.35;;
4895;SDS011;2463;49.948;8.472;2023-02-13T05:17:13;106.00;;;11.68;;
4895;SDS011;2463;49.948;8.472;2023-02-13T05:19:40;109.93;;;12.25;;
4895;SDS011;2463;49.948;8.472;2023-02-13T05:22:07;110.50;;;11.43;;
4895;SDS011;2463;49.948;8.472;2023-02-13T05:24:53;113.45;;;12.13;;
4895;SDS011;2463;49.948;8.472;2023-02-13T05:27:20;109.05;;;12.05;;
4895;SDS011;2463;49.948;8.472;2023-02-13T05:29:47;110.15;;;11.70;;
4895;SDS011;2463;49.948;8.472;2023-02-13T05:32:13;109.45;;;13.00;;
4895;SDS011;2463;49.948;8.472;2023-02-13T05:34:40;107.88;;;12.18;;
4895;SDS011;2463;49.948;8.472;2023-02-13T05:37:07;110.88;;;12.23;;
4895;SDS011;2463;49.948;8.472;2023-02-13T05:39:33;106.60;;;11.82;;
4895;SDS011;2463;49.948;8.472;2023-02-13T05:42:00;116.05;;;12.18;;
4895;SDS011;2463;49.948;8.472;2023-02-13T05:44:30;108.63;;;13.93;;
4895;SDS011;2463;49.948;8.472;2023-02-13T05:46:57;108.40;;;12.90;;
4895;SDS011;2463;49.948;8.472;2023-02-13T05:49:23;106.93;;;11.35;;
4895;SDS011;2463;49.948;8.472;2023-02-13T05:51:50;110.70;;;11.90;;
4895;SDS011;2463;49.948;8.472;2023-02-13T05:54:17;121.85;;;13.43;;
4895;SDS011;2463;49.948;8.472;2023-02-13T05:56:44;111.80;;;13.05;;
4895;SDS011;2463;49.948;8.472;2023-02-13T05:59:12;110.97;;;11.63;;
4895;SDS011;2463;49.948;8.472;2023-02-13T06:01:38;114.90;;;12.45;;
4895;SDS011;2463;49.948;8.472;2023-02-13T06:04:05;107.00;;;12.13;;
4895;SDS011;2463;49.948;8.472;2023-02-13T06:06:32;109.65;;;12.85;;
4895;SDS011;2463;49.948;8.472;2023-02-13T06:08:58;106.60;;;12.50;;
4895;SDS011;2463;49.948;8.472;2023-02-13T06:11:25;106.18;;;12.20;;
4895;SDS011;2463;49.948;8.472;2023-02-13T06:13:52;105.25;;;11.40;;
4895;SDS011;2463;49.948;8.472;2023-02-13T06:16:18;108.72;;;12.00;;
4895;SDS011;2463;49.948;8.472;2023-02-13T06:18:45;108.68;;;12.00;;
4895;SDS011;2463;49.948;8.472;2023-02-13T06:21:12;106.32;;;11.07;;
4895;SDS011;2463;49.948;8.472;2023-02-13T06:23:39;105.47;;;10.93;;
4895;SDS011;2463;49.948;8.472;2023-02-13T06:26:06;106.20;;;10.63;;
4895;SDS011;2463;49.948;8.472;2023-02-13T06:28:34;109.28;;;12.30;;
4895;SDS011;2463;49.948;8.472;2023-02-13T06:31:01;109.65;;;12.40;;
4895;SDS011;2463;49.948;8.472;2023-02-13T06:33:28;110.00;;;11.88;;
4895;SDS011;2463;49.948;8.472;2023-02-13T06:35:55;109.93;;;11.70;;
4895;SDS011;2463;49.948;8.472;2023-02-13T06:38:21;104.55;;;11.02;;
4895;SDS011;2463;49.948;8.472;2023-02-13T06:40:50;105.88;;;11.38;;
4895;SDS011;2463;49.948;8.472;2023-02-13T06:43:16;103.95;;;10.73;;
4895;SDS011;2463;49.948;8.472;2023-02-13T06:45:43;109.40;;;12.57;;
4895;SDS011;2463;49.948;8.472;2023-02-13T06:48:12;105.63;;;10.20;;
4895;SDS011;2463;49.948;8.472;2023-02-13T06:50:39;107.53;;;11.90;;
4895;SDS011;2463;49.948;8.472;2023-02-13T06:53:05;101.75;;;10.90;;
4895;SDS011;2463;49.948;8.472;2023-02-13T06:55:32;107.25;;;11.18;;
4895;SDS011;2463;49.948;8.472;2023-02-13T06:57:59;106.65;;;11.35;;
4895;SDS011;2463;49.948;8.472;2023-02-13T07:00:25;108.97;;;10.65;;
4895;SDS011;2463;49.948;8.472;2023-02-13T07:02:52;105.75;;;11.55;;
4895;SDS011;2463;49.948;8.472;2023-02-13T07:05:19;105.35;;;11.50;;
4895;SDS011;2463;49.948;8.472;2023-02-13T07:07:46;107.30;;;11.18;;
4895;SDS011;2463;49.948;8.472;2023-02-13T07:10:13;114.03;;;11.40;;
4895;SDS011;2463;49.948;8.472;2023-02-13T07:12:39;108.65;;;12.35;;
4895;SDS011;2463;49.948;8.472;2023-02-13T07:15:06;108.30;;;12.32;;
4895;SDS011;2463;49.948;8.472;2023-02-13T07:17:33;111.43;;;12.52;;
4895;SDS011;2463;49.948;8.472;2023-02-13T07:20:00;109.60;;;12.20;;
4895;SDS011;2463;49.948;8.472;2023-02-13T07:22:27;110.82;;;12.27;;
4895;SDS011;2463;49.948;8.472;2023-02-13T07:24:55;113.43;;;13.18;;
4895;SDS011;2463;49.948;8.472;2023-02-13T07:27:24;106.70;;;11.30;;
4895;SDS011;2463;49.948;8.472;2023-02-13T07:29:57;115.28;;;13.07;;
4895;SDS011;2463;49.948;8.472;2023-02-13T07:32:23;107.63;;;11.95;;
4895;SDS011;2463;49.948;8.472;2023-02-13T07:34:50;109.60;;;12.35;;
4895;SDS011;2463;49.948;8.472;2023-02-13T07:37:27;114.93;;;13.15;;
4895;SDS011;2463;49.948;8.472;2023-02-13T07:39:54;116.28;;;13.73;;
4895;SDS011;2463;49.948;8.472;2023-02-13T07:42:21;111.32;;;12.23;;
4895;SDS011;2463;49.948;8.472;2023-02-13T07:44:48;108.95;;;12.00;;
4895;SDS011;2463;49.948;8.472;2023-02-13T07:47:15;112.18;;;13.13;;
4895;SDS011;2463;49.948;8.472;2023-02-13T07:49:45;109.53;;;12.70;;
4895;SDS011;2463;49.948;8.472;2023-02-13T07:52:11;112.93;;;12.55;;
4895;SDS011;2463;49.948;8.472;2023-02-13T07:54:38;109.93;;;13.75;;
4895;SDS011;2463;49.948;8.472;2023-02-13T07:57:13;110.05;;;14.00;;
4895;SDS011;2463;49.948;8.472;2023-02-13T07:59:41;117.38;;;13.65;;
4895;SDS011;2463;49.948;8.472;2023-02-13T08:02:11;112.47;;;13.05;;
4895;SDS011;2463;49.948;8.472;2023-02-13T08:04:39;111.88;;;13.95;;
4895;SDS011;2463;49.948;8.472;2023-02-13T08:07:06;115.40;;;13.00;;
4895;SDS011;2463;49.948;8.472;2023-02-13T08:09:33;112.50;;;13.38;;
4895;SDS011;2463;49.948;8.472;2023-02-13T08:12:18;109.70;;;13.50;;
4895;SDS011;2463;49.948;8.472;2023-02-13T08:14:45;110.38;;;14.50;;
4895;SDS011;2463;49.948;8.472;2023-02-13T08:17:11;113.72;;;13.35;;
4895;SDS011;2463;49.948;8.472;2023-02-13T08:19:38;108.10;;;12.65;;
4895;SDS011;2463;49.948;8.472;2023-02-13T08:22:05;116.68;;;14.43;;
4895;SDS011;2463;49.948;8.472;2023-02-13T08:24:32;110.10;;;13.77;;
4895;SDS011;2463;49.948;8.472;2023-02-13T08:26:58;111.90;;;14.98;;
4895;SDS011;2463;49.948;8.472;2023-02-13T08:29:25;106.63;;;12.07;;
4895;SDS011;2463;49.948;8.472;2023-02-13T08:31:52;109.93;;;14.40;;
4895;SDS011;2463;49.948;8.472;2023-02-13T08:34:19;110.22;;;14.40;;
4895;SDS011;2463;49.948;8.472;2023-02-13T08:36:45;114.60;;;15.95;;
4895;SDS011;2463;49.948;8.472;2023-02-13T08:39:12;112.80;;;14.43;;
4895;SDS011;2463;49.948;8.472;2023-02-13T08:41:39;106.68;;;13.43;;
4895;SDS011;2463;49.948;8.472;2023-02-13T08:44:05;102.70;;;11.25;;
4895;SDS011;2463;49.948;8.472;2023-02-13T08:46:32;102.82;;;12.52;;
4895;SDS011;2463;49.948;8.472;2023-02-13T08:48:59;99.28;;;10.20;;
4895;SDS011;2463;49.948;8.472;2023-02-13T08:51:26;103.50;;;11.40;;
4895;SDS011;2463;49.948;8.472;2023-02-13T08:53:52;101.82;;;11.95;;
4895;SDS011;2463;49.948;8.472;2023-02-13T08:56:19;101.32;;;11.30;;
4895;SDS011;2463;49.948;8.472;2023-02-13T08:58:49;100.47;;;11.32;;
4895;SDS011;2463;49.948;8.472;2023-02-13T09:01:15;97.75;;;11.27;;
4895;SDS011;2463;49.948;8.472;2023-02-13T09:03:42;99.13;;;11.40;;
4895;SDS011;2463;49.948;8.472;2023-02-13T09:06:09;96.60;;;10.55;;
4895;SDS011;2463;49.948;8.472;2023-02-13T09:08:36;96.43;;;10.40;;
4895;SDS011;2463;49.948;8.472;2023-02-13T09:11:03;96.68;;;11.13;;
4895;SDS011;2463;49.948;8.472;2023-02-13T09:13:32;94.03;;;10.30;;
4895;SDS011;2463;49.948;8.472;2023-02-13T09:16:03;95.30;;;10.40;;
4895;SDS011;2463;49.948;8.472;2023-02-13T09:18:31;96.68;;;11.00;;
4895;SDS011;2463;49.948;8.472;2023-02-13T09:23:36;93.60;;;9.60;;
4895;SDS011;2463;49.948;8.472;2023-02-13T09:26:06;92.90;;;10.10;;
4895;SDS011;2463;49.948;8.472;2023-02-13T09:28:34;92.90;;;10.30;;
4895;SDS011;2463;49.948;8.472;2023-02-13T09:31:07;90.47;;;9.33;;
4895;SDS011;2463;49.948;8.472;2023-02-13T09:33:36;90.27;;;9.10;;
4895;SDS011;2463;49.948;8.472;2023-02-13T09:36:04;90.90;;;9.57;;
4895;SDS011;2463;49.948;8.472;2023-02-13T09:38:31;88.60;;;8.50;;
4895;SDS011;2463;49.948;8.472;2023-02-13T09:41:00;92.87;;;9.90;;
4895;SDS011;2463;49.948;8.472;2023-02-13T09:44:34;88.10;;;8.40;;
4895;SDS011;2463;49.948;8.472;2023-02-13T09:46:37;86.90;;;8.00;;
4895;SDS011;2463;49.948;8.472;2023-02-13T09:49:06;89.00;;;8.23;;
4895;SDS011;2463;49.948;8.472;2023-02-13T09:51:37;88.30;;;8.83;;
4895;SDS011;2463;49.948;8.472;2023-02-13T09:54:06;88.20;;;8.83;;
4895;SDS011;2463;49.948;8.472;2023-02-13T09:56:39;87.37;;;8.30;;
4895;SDS011;2463;49.948;8.472;2023-02-13T10:02:23;87.63;;;8.90;;
4895;SDS011;2463;49.948;8.472;2023-02-13T10:14:04;85.80;;;8.00;;
4895;SDS011;2463;49.948;8.472;2023-02-13T10:22:21;83.90;;;7.30;;
4895;SDS011;2463;49.948;8.472;2023-02-13T10:24:58;86.80;;;8.10;;
4895;SDS011;2463;49.948;8.472;2023-02-13T10:27:54;85.10;;;7.40;;
4895;SDS011;2463;49.948;8.472;2023-02-13T10:30:24;85.47;;;7.87;;
4895;SDS011;2463;49.948;8.472;2023-02-13T10:32:57;91.27;;;7.07;;
4895;SDS011;2463;49.948;8.472;2023-02-13T10:38:23;82.67;;;7.00;;
4895;SDS011;2463;49.948;8.472;2023-02-13T10:43:46;84.23;;;7.73;;
4895;SDS011;2463;49.948;8.472;2023-02-13T10:46:21;82.67;;;6.87;;
4895;SDS011;2463;49.948;8.472;2023-02-13T10:49:20;82.47;;;6.87;;
4895;SDS011;2463;49.948;8.472;2023-02-13T10:57:37;82.50;;;6.40;;
4895;SDS011;2463;49.948;8.472;2023-02-13T11:00:24;81.90;;;6.90;;
4895;SDS011;2463;49.948;8.472;2023-02-13T11:03:01;82.07;;;7.10;;
4895;SDS011;2463;49.948;8.472;2023-02-13T11:05:38;80.47;;;6.30;;
4895;SDS011;2463;49.948;8.472;2023-02-13T11:08:14;82.27;;;6.77;;
4895;SDS011;2463;49.948;8.472;2023-02-13T11:10:54;81.37;;;6.83;;
4895;SDS011;2463;49.948;8.472;2023-02-13T11:13:21;82.10;;;6.97;;
4895;SDS011;2463;49.948;8.472;2023-02-13T11:18:33;81.70;;;6.33;;
4895;SDS011;2463;49.948;8.472;2023-02-13T11:21:10;81.50;;;6.53;;
4895;SDS011;2463;49.948;8.472;2023-02-13T11:23:52;80.47;;;6.57;;
4895;SDS011;2463;49.948;8.472;2023-02-13T11:28:55;81.53;;;6.50;;
4895;SDS011;2463;49.948;8.472;2023-02-13T11:33:54;79.20;;;6.27;;
4895;SDS011;2463;49.948;8.472;2023-02-13T11:36:31;80.07;;;5.93;;
4895;SDS011;2463;49.948;8.472;2023-02-13T11:39:00;80.80;;;6.43;;
4895;SDS011;2463;49.948;8.472;2023-02-13T11:41:41;82.13;;;6.87;;
4895;SDS011;2463;49.948;8.472;2023-02-13T11:44:21;83.37;;;6.80;;
4895;SDS011;2463;49.948;8.472;2023-02-13T11:46:53;80.60;;;6.80;;
4895;SDS011;2463;49.948;8.472;2023-02-13T11:49:31;78.87;;;6.30;;
4895;SDS011;2463;49.948;8.472;2023-02-13T11:52:01;80.57;;;6.73;;
4895;SDS011;2463;49.948;8.472;2023-02-13T11:57:02;79.40;;;6.10;;
4895;SDS011;2463;49.948;8.472;2023-02-13T11:59:41;79.60;;;5.87;;
4895;SDS011;2463;49.948;8.472;2023-02-13T12:02:12;81.17;;;6.57;;
4895;SDS011;2463;49.948;8.472;2023-02-13T12:04:51;79.90;;;6.10;;
4895;SDS011;2463;49.948;8.472;2023-02-13T12:07:40;79.47;;;6.20;;
4895;SDS011;2463;49.948;8.472;2023-02-13T12:10:15;79.13;;;5.70;;
4895;SDS011;2463;49.948;8.472;2023-02-13T12:15:25;78.07;;;5.60;;
4895;SDS011;2463;49.948;8.472;2023-02-13T12:18:02;79.37;;;5.80;;
4895;SDS011;2463;49.948;8.472;2023-02-13T12:23:48;78.43;;;5.90;;
4895;SDS011;2463;49.948;8.472;2023-02-13T12:26:40;78.70;;;5.57;;
4895;SDS011;2463;49.948;8.472;2023-02-13T12:32:09;79.63;;;6.27;;
4895;SDS011;2463;49.948;8.472;2023-02-13T12:37:51;78.80;;;6.03;;
4895;SDS011;2463;49.948;8.472;2023-02-13T12:40:24;79.20;;;5.70;;
4895;SDS011;2463;49.948;8.472;2023-02-13T12:43:19;79.77;;;5.40;;
4895;SDS011;2463;49.948;8.472;2023-02-13T12:46:29;81.17;;;6.17;;
4895;SDS011;2463;49.948;8.472;2023-02-13T13:05:28;80.77;;;4.50;;
4895;SDS011;2463;49.948;8.472;2023-02-13T13:14:08;81.20;;;5.40;;
4895;SDS011;2463;49.948;8.472;2023-02-13T13:19:57;81.50;;;4.73;;
4895;SDS011;2463;49.948;8.472;2023-02-13T13:22:48;81.03;;;5.00;;
4895;SDS011;2463;49.948;8.472;2023-02-13T13:26:03;80.80;;;4.70;;
4895;SDS011;2463;49.948;8.472;2023-02-13T13:28:25;81.37;;;4.70;;
4895;SDS011;2463;49.948;8.472;2023-02-13T13:31:02;81.17;;;4.87;;
4895;SDS011;2463;49.948;8.472;2023-02-13T13:33:30;81.93;;;5.63;;
4895;SDS011;2463;49.948;8.472;2023-02-13T13:39:11;90.40;;;5.63;;
4895;SDS011;2463;49.948;8.472;2023-02-13T13:44:51;81.13;;;4.80;;
4895;SDS011;2463;49.948;8.472;2023-02-13T13:50:04;81.77;;;4.40;;
4895;SDS011;2463;49.948;8.472;2023-02-13T13:52:42;82.17;;;5.20;;
4895;SDS011;2463;49.948;8.472;2023-02-13T14:04:01;82.30;;;4.90;;
4895;SDS011;2463;49.948;8.472;2023-02-13T14:09:56;81.97;;;4.60;;
4895;SDS011;2463;49.948;8.472;2023-02-13T14:12:21;80.87;;;4.10;;
4895;SDS011;2463;49.948;8.472;2023-02-13T14:15:46;80.97;;;4.70;;
4895;SDS011;2463;49.948;8.472;2023-02-13T14:20:41;82.57;;;4.90;;
4895;SDS011;2463;49.948;8.472;2023-02-13T14:34:38;83.87;;;5.00;;
4895;SDS011;2463;49.948;8.472;2023-02-13T14:36:44;82.57;;;4.37;;
4895;SDS011;2463;49.948;8.472;2023-02-13T14:39:28;84.30;;;4.70;;
4895;SDS011;2463;49.948;8.472;2023-02-13T14:47:19;84.50;;;4.70;;
4895;SDS011;2463;49.948;8.472;2023-02-13T14:49:51;84.80;;;4.70;;
4895;SDS011;2463;49.948;8.472;2023-02-13T14:52:22;88.30;;;5.10;;
4895;SDS011;2463;49.948;8.472;2023-02-13T14:54:53;84.57;;;5.13;;
4895;SDS011;2463;49.948;8.472;2023-02-13T14:57:34;86.17;;;5.07;;
4895;SDS011;2463;49.948;8.472;2023-02-13T15:03:04;87.93;;;5.00;;
4895;SDS011;2463;49.948;8.472;2023-02-13T15:05:58;87.65;;;5.15;;
4895;SDS011;2463;49.948;8.472;2023-02-13T15:08:41;88.30;;;5.25;;
4895;SDS011;2463;49.948;8.472;2023-02-13T15:11:12;87.93;;;5.30;;
4895;SDS011;2463;49.948;8.472;2023-02-13T15:16:50;87.50;;;4.80;;
4895;SDS011;2463;49.948;8.472;2023-02-13T15:19:21;88.93;;;5.43;;
4895;SDS011;2463;49.948;8.472;2023-02-13T15:21:50;88.82;;;5.38;;
4895;SDS011;2463;49.948;8.472;2023-02-13T15:24:20;87.55;;;5.18;;
4895;SDS011;2463;49.948;8.472;2023-02-13T15:27:03;88.57;;;5.25;;
4895;SDS011;2463;49.948;8.472;2023-02-13T15:29:32;88.85;;;5.55;;
4895;SDS011;2463;49.948;8.472;2023-02-13T15:32:18;88.72;;;4.90;;
4895;SDS011;2463;49.948;8.472;2023-02-13T15:34:49;88.60;;;4.90;;
4895;SDS011;2463;49.948;8.472;2023-02-13T15:37:19;87.82;;;4.60;;
4895;SDS011;2463;49.948;8.472;2023-02-13T15:39:48;89.85;;;5.40;;
4895;SDS011;2463;49.948;8.472;2023-02-13T15:42:14;87.63;;;4.78;;
4895;SDS011;2463;49.948;8.472;2023-02-13T15:44:42;87.85;;;4.80;;
4895;SDS011;2463;49.948;8.472;2023-02-13T15:47:16;88.53;;;5.28;;
4895;SDS011;2463;49.948;8.472;2023-02-13T15:49:53;89.07;;;4.70;;
4895;SDS011;2463;49.948;8.472;2023-02-13T15:54:58;88.60;;;4.90;;
4895;SDS011;2463;49.948;8.472;2023-02-13T15:57:26;90.07;;;4.82;;
4895;SDS011;2463;49.948;8.472;2023-02-13T15:59:53;90.63;;;4.70;;
4895;SDS011;2463;49.948;8.472;2023-02-13T16:02:23;89.18;;;5.35;;
4895;SDS011;2463;49.948;8.472;2023-02-13T16:04:59;89.75;;;5.22;;
4895;SDS011;2463;49.948;8.472;2023-02-13T16:07:27;91.05;;;5.25;;
4895;SDS011;2463;49.948;8.472;2023-02-13T16:10:14;91.97;;;5.00;;
4895;SDS011;2463;49.948;8.472;2023-02-13T16:13:00;88.68;;;4.88;;
4895;SDS011;2463;49.948;8.472;2023-02-13T16:15:30;89.45;;;4.90;;
4895;SDS011;2463;49.948;8.472;2023-02-13T16:17:59;89.03;;;4.90;;
4895;SDS011;2463;49.948;8.472;2023-02-13T16:20:26;89.47;;;5.20;;
4895;SDS011;2463;49.948;8.472;2023-02-13T16:25:25;89.43;;;4.95;;
4895;SDS011;2463;49.948;8.472;2023-02-13T16:28:00;91.50;;;5.40;;
4895;SDS011;2463;49.948;8.472;2023-02-13T16:30:33;90.78;;;6.07;;
4895;SDS011;2463;49.948;8.472;2023-02-13T16:33:21;90.57;;;5.28;;
4895;SDS011;2463;49.948;8.472;2023-02-13T16:35:53;91.20;;;5.70;;
4895;SDS011;2463;49.948;8.472;2023-02-13T16:38:43;91.03;;;5.60;;
4895;SDS011;2463;49.948;8.472;2023-02-13T16:43:54;99.15;;;5.32;;
4895;SDS011;2463;49.948;8.472;2023-02-13T16:54:03;100.18;;;5.78;;
4895;SDS011;2463;49.948;8.472;2023-02-13T16:56:40;92.68;;;6.35;;
4895;SDS011;2463;49.948;8.472;2023-02-13T17:02:13;93.05;;;6.40;;
4895;SDS011;2463;49.948;8.472;2023-02-13T17:05:24;95.38;;;6.20;;
4895;SDS011;2463;49.948;8.472;2023-02-13T17:07:30;98.63;;;6.38;;
4895;SDS011;2463;49.948;8.472;2023-02-13T17:10:22;93.50;;;6.47;;
4895;SDS011;2463;49.948;8.472;2023-02-13T17:12:53;96.78;;;6.90;;
4895;SDS011;2463;49.948;8.472;2023-02-13T17:15:23;96.30;;;7.53;;
4895;SDS011;2463;49.948;8.472;2023-02-13T17:17:51;97.68;;;7.40;;
4895;SDS011;2463;49.948;8.472;2023-02-13T17:20:23;94.95;;;7.07;;
4895;SDS011;2463;49.948;8.472;2023-02-13T17:22:53;98.47;;;7.50;;
4895;SDS011;2463;49.948;8.472;2023-02-13T17:25:25;96.90;;;7.68;;
4895;SDS011;2463;49.948;8.472;2023-02-13T17:27:53;95.22;;;7.07;;
4895;SDS011;2463;49.948;8.472;2023-02-13T17:30:22;94.03;;;6.57;;
4895;SDS011;2463;49.948;8.472;2023-02-13T17:33:26;94.32;;;7.18;;
4895;SDS011;2463;49.948;8.472;2023-02-13T17:35:48;96.85;;;7.55;;
4895;SDS011;2463;49.948;8.472;2023-02-13T17:38:16;95.93;;;7.80;;
4895;SDS011;2463;49.948;8.472;2023-02-13T17:40:43;98.15;;;7.88;;
4895;SDS011;2463;49.948;8.472;2023-02-13T17:43:11;96.22;;;7.45;;
4895;SDS011;2463;49.948;8.472;2023-02-13T17:45:38;95.30;;;7.40;;
4895;SDS011;2463;49.948;8.472;2023-02-13T17:48:06;94.07;;;6.65;;
4895;SDS011;2463;49.948;8.472;2023-02-13T17:50:33;94.53;;;6.72;;
4895;SDS011;2463;49.948;8.472;2023-02-13T17:53:02;96.00;;;7.03;;
4895;SDS011;2463;49.948;8.472;2023-02-13T17:55:31;93.35;;;6.85;;
4895;SDS011;2463;49.948;8.472;2023-02-13T17:57:58;98.30;;;7.32;;
4895;SDS011;2463;49.948;8.472;2023-02-13T18:00:27;97.63;;;7.60;;
4895;SDS011;2463;49.948;8.472;2023-02-13T18:02:56;95.10;;;7.53;;
4895;SDS011;2463;49.948;8.472;2023-02-13T18:05:24;95.97;;;7.45;;
4895;SDS011;2463;49.948;8.472;2023-02-13T18:07:51;96.28;;;7.30;;
4895;SDS011;2463;49.948;8.472;2023-02-13T18:10:19;97.45;;;7.90;;
4895;SDS011;2463;49.948;8.472;2023-02-13T18:12:51;98.43;;;8.75;;
4895;SDS011;2463;49.948;8.472;2023-02-13T18:15:20;97.40;;;8.20;;
4895;SDS011;2463;49.948;8.472;2023-02-13T18:17:46;99.40;;;8.52;;
4895;SDS011;2463;49.948;8.472;2023-02-13T18:20:15;100.57;;;9.93;;
4895;SDS011;2463;49.948;8.472;2023-02-13T18:22:44;102.50;;;10.15;;